sensor_id;sensor_type;location;lat;lon;timestamp;P1;durP1;ratioP1;P2;durP2;ratioP2
68577;SDS011;61668;45.388;11.784;2022-07-05T00:00:06;5.30;;;0.60;;
68577;SDS011;61668;45.388;11.784;2022-07-05T00:02:34;5.50;;;0.80;;
68577;SDS011;61668;45.388;11.784;2022-07-05T00:04:59;5.80;;;0.80;;
68577;SDS011;61668;45.388;11.784;2022-07-05T00:07:25;5.30;;;1.20;;
68577;SDS011;61668;45.388;11.784;2022-07-05T00:09:53;6.30;;;0.90;;
68577;SDS011;61668;45.388;11.784;2022-07-05T00:12:24;5.90;;;1.00;;
68577;SDS011;61668;45.388;11.784;2022-07-05T00:14:51;5.90;;;0.80;;
68577;SDS011;61668;45.388;11.784;2022-07-05T00:17:17;7.60;;;0.90;;
68577;SDS011;61668;45.388;11.784;2022-07-05T00:19:43;5.30;;;0.90;;
68577;SDS011;61668;45.388;11.784;2022-07-05T00:22:09;6.70;;;1.00;;
68577;SDS011;61668;45.388;11.784;2022-07-05T00:24:34;5.60;;;0.80;;
68577;SDS011;61668;45.388;11.784;2022-07-05T00:27:01;6.00;;;0.70;;
68577;SDS011;61668;45.388;11.784;2022-07-05T00:29:27;6.50;;;0.80;;
68577;SDS011;61668;45.388;11.784;2022-07-05T00:31:53;6.10;;;0.70;;
68577;SDS011;61668;45.388;11.784;2022-07-05T00:34:19;6.00;;;0.70;;
68577;SDS011;61668;45.388;11.784;2022-07-05T00:36:45;5.60;;;0.90;;
68577;SDS011;61668;45.388;11.784;2022-07-05T00:39:11;7.10;;;0.70;;
68577;SDS011;61668;45.388;11.784;2022-07-05T00:41:37;7.00;;;0.90;;
68577;SDS011;61668;45.388;11.784;2022-07-05T00:44:07;5.70;;;0.60;;
68577;SDS011;61668;45.388;11.784;2022-07-05T00:46:35;7.30;;;1.00;;
68577;SDS011;61668;45.388;11.784;2022-07-05T00:49:02;6.60;;;0.90;;
68577;SDS011;61668;45.388;11.784;2022-07-05T00:51:34;5.70;;;0.80;;
68577;SDS011;61668;45.388;11.784;2022-07-05T00:54:02;6.30;;;0.70;;
68577;SDS011;61668;45.388;11.784;2022-07-05T00:56:30;7.00;;;1.10;;
68577;SDS011;61668;45.388;11.784;2022-07-05T00:58:56;6.40;;;0.70;;
68577;SDS011;61668;45.388;11.784;2022-07-05T01:01:21;6.10;;;0.80;;
68577;SDS011;61668;45.388;11.784;2022-07-05T01:03:47;7.20;;;0.90;;
68577;SDS011;61668;45.388;11.784;2022-07-05T01:06:13;7.80;;;1.10;;
68577;SDS011;61668;45.388;11.784;2022-07-05T01:08:41;7.90;;;0.60;;
68577;SDS011;61668;45.388;11.784;2022-07-05T01:11:11;6.20;;;0.90;;
68577;SDS011;61668;45.388;11.784;2022-07-05T01:13:37;8.50;;;1.00;;
68577;SDS011;61668;45.388;11.784;2022-07-05T01:16:03;6.40;;;0.80;;
68577;SDS011;61668;45.388;11.784;2022-07-05T01:18:30;7.00;;;1.40;;
68577;SDS011;61668;45.388;11.784;2022-07-05T01:20:58;6.70;;;1.00;;
68577;SDS011;61668;45.388;11.784;2022-07-05T01:23:27;7.00;;;0.80;;
68577;SDS011;61668;45.388;11.784;2022-07-05T01:25:54;7.90;;;0.70;;
68577;SDS011;61668;45.388;11.784;2022-07-05T01:28:20;6.00;;;0.70;;
68577;SDS011;61668;45.388;11.784;2022-07-05T01:30:46;7.40;;;1.10;;
68577;SDS011;61668;45.388;11.784;2022-07-05T01:33:12;6.60;;;0.80;;
68577;SDS011;61668;45.388;11.784;2022-07-05T01:35:38;6.20;;;0.90;;
68577;SDS011;61668;45.388;11.784;2022-07-05T01:38:04;6.20;;;0.80;;
68577;SDS011;61668;45.388;11.784;2022-07-05T01:40:30;6.60;;;1.10;;
68577;SDS011;61668;45.388;11.784;2022-07-05T01:42:56;5.90;;;0.50;;
68577;SDS011;61668;45.388;11.784;2022-07-05T01:45:22;6.80;;;1.10;;
68577;SDS011;61668;45.388;11.784;2022-07-05T01:48:12;6.20;;;1.00;;
68577;SDS011;61668;45.388;11.784;2022-07-05T01:50:45;6.70;;;1.00;;
68577;SDS011;61668;45.388;11.784;2022-07-05T01:53:24;7.40;;;1.20;;
68577;SDS011;61668;45.388;11.784;2022-07-05T01:55:54;5.70;;;0.50;;
68577;SDS011;61668;45.388;11.784;2022-07-05T01:58:22;4.70;;;0.50;;
68577;SDS011;61668;45.388;11.784;2022-07-05T02:00:51;6.70;;;1.20;;
68577;SDS011;61668;45.388;11.784;2022-07-05T02:03:18;6.70;;;1.00;;
68577;SDS011;61668;45.388;11.784;2022-07-05T02:05:45;6.90;;;1.00;;
68577;SDS011;61668;45.388;11.784;2022-07-05T02:08:12;6.50;;;0.80;;
68577;SDS011;61668;45.388;11.784;2022-07-05T02:10:39;7.60;;;1.00;;
68577;SDS011;61668;45.388;11.784;2022-07-05T02:13:05;5.50;;;0.70;;
68577;SDS011;61668;45.388;11.784;2022-07-05T02:15:32;6.10;;;0.90;;
68577;SDS011;61668;45.388;11.784;2022-07-05T02:18:00;7.10;;;0.90;;
68577;SDS011;61668;45.388;11.784;2022-07-05T02:20:27;5.90;;;0.70;;
68577;SDS011;61668;45.388;11.784;2022-07-05T02:22:53;7.50;;;0.60;;
68577;SDS011;61668;45.388;11.784;2022-07-05T02:25:18;6.60;;;0.60;;
68577;SDS011;61668;45.388;11.784;2022-07-05T02:27:44;7.70;;;1.40;;
68577;SDS011;61668;45.388;11.784;2022-07-05T02:30:11;6.30;;;1.00;;
68577;SDS011;61668;45.388;11.784;2022-07-05T02:32:36;5.20;;;0.70;;
68577;SDS011;61668;45.388;11.784;2022-07-05T02:35:03;5.90;;;0.60;;
68577;SDS011;61668;45.388;11.784;2022-07-05T02:37:29;7.50;;;1.00;;
68577;SDS011;61668;45.388;11.784;2022-07-05T02:39:55;6.50;;;0.90;;
68577;SDS011;61668;45.388;11.784;2022-07-05T02:42:21;6.60;;;0.70;;
68577;SDS011;61668;45.388;11.784;2022-07-05T02:44:47;6.90;;;0.90;;
68577;SDS011;61668;45.388;11.784;2022-07-05T02:47:12;6.80;;;0.80;;
68577;SDS011;61668;45.388;11.784;2022-07-05T02:49:38;6.50;;;1.00;;
68577;SDS011;61668;45.388;11.784;2022-07-05T02:52:03;5.80;;;0.90;;
68577;SDS011;61668;45.388;11.784;2022-07-05T02:54:29;7.10;;;1.00;;
68577;SDS011;61668;45.388;11.784;2022-07-05T02:56:55;7.30;;;0.70;;
68577;SDS011;61668;45.388;11.784;2022-07-05T02:59:20;6.40;;;0.70;;
68577;SDS011;61668;45.388;11.784;2022-07-05T03:01:46;6.80;;;1.20;;
68577;SDS011;61668;45.388;11.784;2022-07-05T03:04:11;10.10;;;1.60;;
68577;SDS011;61668;45.388;11.784;2022-07-05T03:06:37;6.20;;;1.20;;
68577;SDS011;61668;45.388;11.784;2022-07-05T03:09:03;8.00;;;1.70;;
68577;SDS011;61668;45.388;11.784;2022-07-05T03:11:28;7.90;;;1.60;;
68577;SDS011;61668;45.388;11.784;2022-07-05T03:13:54;7.90;;;1.90;;
68577;SDS011;61668;45.388;11.784;2022-07-05T03:16:19;6.70;;;1.60;;
68577;SDS011;61668;45.388;11.784;2022-07-05T03:18:47;6.60;;;1.30;;
68577;SDS011;61668;45.388;11.784;2022-07-05T03:21:12;7.20;;;1.30;;
68577;SDS011;61668;45.388;11.784;2022-07-05T03:23:38;7.60;;;2.00;;
68577;SDS011;61668;45.388;11.784;2022-07-05T03:26:03;7.10;;;1.70;;
68577;SDS011;61668;45.388;11.784;2022-07-05T03:28:29;8.40;;;1.70;;
68577;SDS011;61668;45.388;11.784;2022-07-05T03:30:54;7.80;;;1.90;;
68577;SDS011;61668;45.388;11.784;2022-07-05T03:33:20;7.50;;;1.60;;
68577;SDS011;61668;45.388;11.784;2022-07-05T03:35:45;8.40;;;2.10;;
68577;SDS011;61668;45.388;11.784;2022-07-05T03:38:11;8.20;;;1.20;;
68577;SDS011;61668;45.388;11.784;2022-07-05T03:40:36;8.60;;;2.40;;
68577;SDS011;61668;45.388;11.784;2022-07-05T03:43:02;6.90;;;2.00;;
68577;SDS011;61668;45.388;11.784;2022-07-05T03:45:27;9.10;;;2.30;;
68577;SDS011;61668;45.388;11.784;2022-07-05T03:47:57;8.40;;;2.00;;
68577;SDS011;61668;45.388;11.784;2022-07-05T03:50:24;8.50;;;1.80;;
68577;SDS011;61668;45.388;11.784;2022-07-05T03:52:49;10.40;;;2.00;;
68577;SDS011;61668;45.388;11.784;2022-07-05T03:55:15;6.90;;;1.90;;
68577;SDS011;61668;45.388;11.784;2022-07-05T03:57:41;9.40;;;1.90;;
68577;SDS011;61668;45.388;11.784;2022-07-05T04:00:07;9.80;;;2.40;;
68577;SDS011;61668;45.388;11.784;2022-07-05T04:02:33;10.20;;;2.80;;
68577;SDS011;61668;45.388;11.784;2022-07-05T04:04:58;9.20;;;2.40;;
68577;SDS011;61668;45.388;11.784;2022-07-05T04:07:24;10.70;;;3.60;;
68577;SDS011;61668;45.388;11.784;2022-07-05T04:09:49;9.10;;;3.00;;
68577;SDS011;61668;45.388;11.784;2022-07-05T04:12:15;8.90;;;3.30;;
68577;SDS011;61668;45.388;11.784;2022-07-05T04:14:40;9.60;;;2.50;;
68577;SDS011;61668;45.388;11.784;2022-07-05T04:17:06;9.90;;;3.40;;
68577;SDS011;61668;45.388;11.784;2022-07-05T04:19:31;8.60;;;2.70;;
68577;SDS011;61668;45.388;11.784;2022-07-05T04:21:57;10.20;;;3.20;;
68577;SDS011;61668;45.388;11.784;2022-07-05T04:24:22;10.20;;;3.30;;
68577;SDS011;61668;45.388;11.784;2022-07-05T04:26:48;9.10;;;3.00;;
68577;SDS011;61668;45.388;11.784;2022-07-05T04:29:13;10.00;;;2.80;;
68577;SDS011;61668;45.388;11.784;2022-07-05T04:31:39;8.70;;;2.50;;
68577;SDS011;61668;45.388;11.784;2022-07-05T04:34:04;9.40;;;2.60;;
68577;SDS011;61668;45.388;11.784;2022-07-05T04:36:30;10.80;;;2.90;;
68577;SDS011;61668;45.388;11.784;2022-07-05T04:38:56;8.80;;;3.20;;
68577;SDS011;61668;45.388;11.784;2022-07-05T04:41:21;8.60;;;3.60;;
68577;SDS011;61668;45.388;11.784;2022-07-05T04:43:47;8.20;;;3.10;;
68577;SDS011;61668;45.388;11.784;2022-07-05T04:46:12;11.00;;;3.20;;
68577;SDS011;61668;45.388;11.784;2022-07-05T04:48:38;10.80;;;3.20;;
68577;SDS011;61668;45.388;11.784;2022-07-05T04:51:03;10.20;;;3.60;;
68577;SDS011;61668;45.388;11.784;2022-07-05T04:53:29;8.90;;;3.60;;
68577;SDS011;61668;45.388;11.784;2022-07-05T04:55:54;9.50;;;3.60;;
68577;SDS011;61668;45.388;11.784;2022-07-05T04:58:19;10.30;;;3.60;;
68577;SDS011;61668;45.388;11.784;2022-07-05T05:00:45;10.60;;;3.60;;
68577;SDS011;61668;45.388;11.784;2022-07-05T05:03:10;10.20;;;3.80;;
68577;SDS011;61668;45.388;11.784;2022-07-05T05:05:36;8.90;;;3.50;;
68577;SDS011;61668;45.388;11.784;2022-07-05T05:08:01;10.70;;;3.60;;
68577;SDS011;61668;45.388;11.784;2022-07-05T05:10:27;10.80;;;3.30;;
68577;SDS011;61668;45.388;11.784;2022-07-05T05:12:53;9.40;;;3.30;;
68577;SDS011;61668;45.388;11.784;2022-07-05T05:15:18;14.70;;;4.80;;
68577;SDS011;61668;45.388;11.784;2022-07-05T05:17:44;10.20;;;4.20;;
68577;SDS011;61668;45.388;11.784;2022-07-05T05:20:15;10.50;;;4.20;;
68577;SDS011;61668;45.388;11.784;2022-07-05T05:22:42;11.10;;;4.10;;
68577;SDS011;61668;45.388;11.784;2022-07-05T05:25:09;12.00;;;3.70;;
68577;SDS011;61668;45.388;11.784;2022-07-05T05:27:35;9.10;;;3.90;;
68577;SDS011;61668;45.388;11.784;2022-07-05T05:30:01;10.60;;;4.10;;
68577;SDS011;61668;45.388;11.784;2022-07-05T05:32:27;11.70;;;4.70;;
68577;SDS011;61668;45.388;11.784;2022-07-05T05:34:52;10.10;;;4.00;;
68577;SDS011;61668;45.388;11.784;2022-07-05T05:37:17;10.50;;;4.00;;
68577;SDS011;61668;45.388;11.784;2022-07-05T05:39:43;10.70;;;4.40;;
68577;SDS011;61668;45.388;11.784;2022-07-05T05:42:08;9.30;;;4.00;;
68577;SDS011;61668;45.388;11.784;2022-07-05T05:44:34;9.90;;;3.30;;
68577;SDS011;61668;45.388;11.784;2022-07-05T05:46:59;9.20;;;3.40;;
68577;SDS011;61668;45.388;11.784;2022-07-05T05:49:25;8.50;;;3.30;;
68577;SDS011;61668;45.388;11.784;2022-07-05T05:51:50;9.50;;;2.50;;
68577;SDS011;61668;45.388;11.784;2022-07-05T05:54:16;9.90;;;3.40;;
68577;SDS011;61668;45.388;11.784;2022-07-05T05:56:41;9.00;;;3.30;;
68577;SDS011;61668;45.388;11.784;2022-07-05T05:59:08;9.00;;;2.90;;
68577;SDS011;61668;45.388;11.784;2022-07-05T06:01:33;7.60;;;2.80;;
68577;SDS011;61668;45.388;11.784;2022-07-05T06:03:59;8.90;;;2.50;;
68577;SDS011;61668;45.388;11.784;2022-07-05T06:06:25;8.90;;;2.90;;
68577;SDS011;61668;45.388;11.784;2022-07-05T06:08:50;9.90;;;3.20;;
68577;SDS011;61668;45.388;11.784;2022-07-05T06:11:16;8.50;;;2.60;;
68577;SDS011;61668;45.388;11.784;2022-07-05T06:13:41;9.00;;;2.90;;
68577;SDS011;61668;45.388;11.784;2022-07-05T06:16:08;6.90;;;2.40;;
68577;SDS011;61668;45.388;11.784;2022-07-05T06:18:34;7.80;;;2.80;;
68577;SDS011;61668;45.388;11.784;2022-07-05T06:21:01;7.50;;;3.10;;
68577;SDS011;61668;45.388;11.784;2022-07-05T06:23:27;9.90;;;3.50;;
68577;SDS011;61668;45.388;11.784;2022-07-05T06:25:53;9.50;;;2.80;;
68577;SDS011;61668;45.388;11.784;2022-07-05T06:28:18;8.20;;;3.20;;
68577;SDS011;61668;45.388;11.784;2022-07-05T06:30:44;9.80;;;3.30;;
68577;SDS011;61668;45.388;11.784;2022-07-05T06:33:09;9.80;;;3.30;;
68577;SDS011;61668;45.388;11.784;2022-07-05T06:35:35;9.80;;;3.60;;
68577;SDS011;61668;45.388;11.784;2022-07-05T06:38:06;12.40;;;4.90;;
68577;SDS011;61668;45.388;11.784;2022-07-05T06:40:35;11.40;;;5.50;;
68577;SDS011;61668;45.388;11.784;2022-07-05T06:43:08;12.40;;;6.80;;
68577;SDS011;61668;45.388;11.784;2022-07-05T06:45:36;13.60;;;6.60;;
68577;SDS011;61668;45.388;11.784;2022-07-05T06:50:32;8.70;;;3.90;;
68577;SDS011;61668;45.388;11.784;2022-07-05T06:53:00;11.80;;;3.90;;
68577;SDS011;61668;45.388;11.784;2022-07-05T06:55:26;9.20;;;3.50;;
68577;SDS011;61668;45.388;11.784;2022-07-05T06:58:07;7.60;;;3.10;;
68577;SDS011;61668;45.388;11.784;2022-07-05T07:00:34;10.50;;;3.60;;
68577;SDS011;61668;45.388;11.784;2022-07-05T07:03:00;9.00;;;3.40;;
68577;SDS011;61668;45.388;11.784;2022-07-05T07:05:26;8.60;;;3.20;;
68577;SDS011;61668;45.388;11.784;2022-07-05T07:07:53;10.00;;;3.50;;
68577;SDS011;61668;45.388;11.784;2022-07-05T07:10:37;8.90;;;2.20;;
68577;SDS011;61668;45.388;11.784;2022-07-05T07:13:03;9.90;;;2.90;;
68577;SDS011;61668;45.388;11.784;2022-07-05T07:15:30;7.30;;;2.20;;
68577;SDS011;61668;45.388;11.784;2022-07-05T07:17:56;8.20;;;2.50;;
68577;SDS011;61668;45.388;11.784;2022-07-05T07:20:22;8.70;;;2.40;;
68577;SDS011;61668;45.388;11.784;2022-07-05T07:22:48;11.40;;;2.90;;
68577;SDS011;61668;45.388;11.784;2022-07-05T07:25:14;7.80;;;2.10;;
68577;SDS011;61668;45.388;11.784;2022-07-05T07:27:46;7.40;;;2.20;;
68577;SDS011;61668;45.388;11.784;2022-07-05T07:30:16;7.30;;;2.30;;
68577;SDS011;61668;45.388;11.784;2022-07-05T07:35:23;8.60;;;1.70;;
68577;SDS011;61668;45.388;11.784;2022-07-05T07:37:48;16.80;;;2.70;;
68577;SDS011;61668;45.388;11.784;2022-07-05T07:40:14;11.40;;;2.30;;
68577;SDS011;61668;45.388;11.784;2022-07-05T07:42:40;6.50;;;1.40;;
68577;SDS011;61668;45.388;11.784;2022-07-05T07:45:06;8.20;;;1.80;;
68577;SDS011;61668;45.388;11.784;2022-07-05T07:47:33;7.60;;;1.60;;
68577;SDS011;61668;45.388;11.784;2022-07-05T07:50:00;10.20;;;1.80;;
68577;SDS011;61668;45.388;11.784;2022-07-05T07:52:26;9.20;;;1.90;;
68577;SDS011;61668;45.388;11.784;2022-07-05T07:54:52;8.20;;;2.50;;
68577;SDS011;61668;45.388;11.784;2022-07-05T07:57:18;7.50;;;1.80;;
68577;SDS011;61668;45.388;11.784;2022-07-05T07:59:44;6.10;;;1.70;;
68577;SDS011;61668;45.388;11.784;2022-07-05T08:02:09;5.90;;;1.50;;
68577;SDS011;61668;45.388;11.784;2022-07-05T08:04:35;8.40;;;2.30;;
68577;SDS011;61668;45.388;11.784;2022-07-05T08:07:01;7.50;;;2.10;;
68577;SDS011;61668;45.388;11.784;2022-07-05T08:09:29;8.00;;;2.50;;
68577;SDS011;61668;45.388;11.784;2022-07-05T08:11:56;6.20;;;1.50;;
68577;SDS011;61668;45.388;11.784;2022-07-05T08:14:22;6.80;;;1.90;;
68577;SDS011;61668;45.388;11.784;2022-07-05T08:16:48;8.70;;;3.90;;
68577;SDS011;61668;45.388;11.784;2022-07-05T08:19:15;7.40;;;2.50;;
68577;SDS011;61668;45.388;11.784;2022-07-05T08:22:00;6.60;;;2.20;;
68577;SDS011;61668;45.388;11.784;2022-07-05T08:24:27;7.60;;;1.80;;
68577;SDS011;61668;45.388;11.784;2022-07-05T08:26:53;7.30;;;2.70;;
68577;SDS011;61668;45.388;11.784;2022-07-05T08:29:18;7.80;;;2.20;;
68577;SDS011;61668;45.388;11.784;2022-07-05T08:31:47;7.30;;;2.50;;
68577;SDS011;61668;45.388;11.784;2022-07-05T08:34:14;14.80;;;3.20;;
68577;SDS011;61668;45.388;11.784;2022-07-05T08:36:43;8.30;;;2.80;;
68577;SDS011;61668;45.388;11.784;2022-07-05T08:39:09;7.30;;;2.20;;
68577;SDS011;61668;45.388;11.784;2022-07-05T08:41:40;8.20;;;2.60;;
68577;SDS011;61668;45.388;11.784;2022-07-05T08:44:07;7.00;;;2.10;;
68577;SDS011;61668;45.388;11.784;2022-07-05T08:46:37;8.80;;;2.90;;
68577;SDS011;61668;45.388;11.784;2022-07-05T08:49:04;8.10;;;2.50;;
68577;SDS011;61668;45.388;11.784;2022-07-05T08:51:36;8.40;;;2.40;;
68577;SDS011;61668;45.388;11.784;2022-07-05T08:54:04;8.40;;;2.40;;
68577;SDS011;61668;45.388;11.784;2022-07-05T08:56:30;17.10;;;4.00;;
68577;SDS011;61668;45.388;11.784;2022-07-05T08:58:56;9.20;;;2.80;;
68577;SDS011;61668;45.388;11.784;2022-07-05T09:01:22;11.80;;;2.90;;
68577;SDS011;61668;45.388;11.784;2022-07-05T09:03:51;12.80;;;2.80;;
68577;SDS011;61668;45.388;11.784;2022-07-05T09:06:19;14.80;;;2.50;;
68577;SDS011;61668;45.388;11.784;2022-07-05T09:08:53;9.80;;;3.00;;
68577;SDS011;61668;45.388;11.784;2022-07-05T09:11:24;5.90;;;2.10;;
68577;SDS011;61668;45.388;11.784;2022-07-05T09:13:54;6.70;;;2.00;;
68577;SDS011;61668;45.388;11.784;2022-07-05T09:16:19;6.50;;;1.70;;
68577;SDS011;61668;45.388;11.784;2022-07-05T09:21:21;10.50;;;2.20;;
68577;SDS011;61668;45.388;11.784;2022-07-05T09:26:42;9.70;;;2.70;;
68577;SDS011;61668;45.388;11.784;2022-07-05T09:29:18;6.00;;;1.70;;
68577;SDS011;61668;45.388;11.784;2022-07-05T09:31:46;7.70;;;2.60;;
68577;SDS011;61668;45.388;11.784;2022-07-05T09:34:18;7.00;;;2.50;;
68577;SDS011;61668;45.388;11.784;2022-07-05T09:37:01;10.50;;;2.40;;
68577;SDS011;61668;45.388;11.784;2022-07-05T09:44:53;6.90;;;2.30;;
68577;SDS011;61668;45.388;11.784;2022-07-05T09:47:29;6.40;;;2.70;;
68577;SDS011;61668;45.388;11.784;2022-07-05T09:49:57;9.50;;;2.50;;
68577;SDS011;61668;45.388;11.784;2022-07-05T09:55:06;6.60;;;2.10;;
68577;SDS011;61668;45.388;11.784;2022-07-05T09:57:33;8.00;;;2.20;;
68577;SDS011;61668;45.388;11.784;2022-07-05T10:00:20;6.20;;;1.80;;
68577;SDS011;61668;45.388;11.784;2022-07-05T10:02:52;6.50;;;2.00;;
68577;SDS011;61668;45.388;11.784;2022-07-05T10:05:24;7.00;;;1.50;;
68577;SDS011;61668;45.388;11.784;2022-07-05T10:07:53;5.90;;;1.80;;
68577;SDS011;61668;45.388;11.784;2022-07-05T10:10:28;6.10;;;1.90;;
68577;SDS011;61668;45.388;11.784;2022-07-05T10:13:00;7.20;;;2.40;;
68577;SDS011;61668;45.388;11.784;2022-07-05T10:15:30;7.20;;;1.80;;
68577;SDS011;61668;45.388;11.784;2022-07-05T10:18:04;5.80;;;1.60;;
68577;SDS011;61668;45.388;11.784;2022-07-05T10:23:11;6.70;;;2.20;;
68577;SDS011;61668;45.388;11.784;2022-07-05T10:25:41;8.20;;;2.00;;
68577;SDS011;61668;45.388;11.784;2022-07-05T10:28:09;6.70;;;2.30;;
68577;SDS011;61668;45.388;11.784;2022-07-05T10:30:36;6.80;;;2.10;;
68577;SDS011;61668;45.388;11.784;2022-07-05T10:33:03;8.00;;;1.90;;
68577;SDS011;61668;45.388;11.784;2022-07-05T10:35:31;6.00;;;2.20;;
68577;SDS011;61668;45.388;11.784;2022-07-05T10:37:58;7.40;;;1.90;;
68577;SDS011;61668;45.388;11.784;2022-07-05T10:40:24;6.70;;;2.80;;
68577;SDS011;61668;45.388;11.784;2022-07-05T10:42:54;7.80;;;2.20;;
68577;SDS011;61668;45.388;11.784;2022-07-05T10:51:14;7.70;;;2.30;;
68577;SDS011;61668;45.388;11.784;2022-07-05T10:58:40;7.50;;;2.20;;
68577;SDS011;61668;45.388;11.784;2022-07-05T11:06:41;6.00;;;1.90;;
68577;SDS011;61668;45.388;11.784;2022-07-05T11:16:45;6.10;;;2.00;;
68577;SDS011;61668;45.388;11.784;2022-07-05T11:19:17;7.00;;;2.10;;
68577;SDS011;61668;45.388;11.784;2022-07-05T11:22:02;6.40;;;1.70;;
68577;SDS011;61668;45.388;11.784;2022-07-05T11:24:33;6.10;;;1.90;;
68577;SDS011;61668;45.388;11.784;2022-07-05T11:27:02;6.20;;;2.00;;
68577;SDS011;61668;45.388;11.784;2022-07-05T11:34:51;6.30;;;2.20;;
68577;SDS011;61668;45.388;11.784;2022-07-05T11:42:47;7.80;;;2.10;;
68577;SDS011;61668;45.388;11.784;2022-07-05T11:45:13;5.80;;;1.90;;
68577;SDS011;61668;45.388;11.784;2022-07-05T11:47:40;6.30;;;2.00;;
68577;SDS011;61668;45.388;11.784;2022-07-05T11:50:06;6.70;;;2.10;;
68577;SDS011;61668;45.388;11.784;2022-07-05T11:52:34;6.80;;;1.80;;
68577;SDS011;61668;45.388;11.784;2022-07-05T11:55:03;5.40;;;1.90;;
68577;SDS011;61668;45.388;11.784;2022-07-05T11:57:30;7.30;;;2.50;;
68577;SDS011;61668;45.388;11.784;2022-07-05T11:59:55;6.60;;;2.80;;
68577;SDS011;61668;45.388;11.784;2022-07-05T12:02:21;6.50;;;2.60;;
68577;SDS011;61668;45.388;11.784;2022-07-05T12:04:48;6.10;;;2.60;;
68577;SDS011;61668;45.388;11.784;2022-07-05T12:07:28;5.70;;;2.00;;
68577;SDS011;61668;45.388;11.784;2022-07-05T12:09:54;6.50;;;2.50;;
68577;SDS011;61668;45.388;11.784;2022-07-05T12:12:39;6.70;;;2.20;;
68577;SDS011;61668;45.388;11.784;2022-07-05T12:15:20;5.90;;;2.30;;
68577;SDS011;61668;45.388;11.784;2022-07-05T12:17:48;7.50;;;2.20;;
68577;SDS011;61668;45.388;11.784;2022-07-05T12:20:21;6.40;;;2.40;;
68577;SDS011;61668;45.388;11.784;2022-07-05T12:22:48;7.60;;;2.50;;
68577;SDS011;61668;45.388;11.784;2022-07-05T12:25:16;7.70;;;2.40;;
68577;SDS011;61668;45.388;11.784;2022-07-05T12:27:44;8.20;;;2.20;;
68577;SDS011;61668;45.388;11.784;2022-07-05T12:30:13;6.90;;;2.70;;
68577;SDS011;61668;45.388;11.784;2022-07-05T12:33:02;5.90;;;2.20;;
68577;SDS011;61668;45.388;11.784;2022-07-05T12:35:38;7.90;;;2.50;;
68577;SDS011;61668;45.388;11.784;2022-07-05T12:38:19;7.20;;;2.50;;
68577;SDS011;61668;45.388;11.784;2022-07-05T12:40:56;9.70;;;3.10;;
68577;SDS011;61668;45.388;11.784;2022-07-05T12:43:23;6.60;;;2.30;;
68577;SDS011;61668;45.388;11.784;2022-07-05T12:46:07;8.00;;;2.50;;
68577;SDS011;61668;45.388;11.784;2022-07-05T12:48:37;7.50;;;2.50;;
68577;SDS011;61668;45.388;11.784;2022-07-05T12:51:05;7.80;;;2.60;;
68577;SDS011;61668;45.388;11.784;2022-07-05T12:53:33;8.10;;;1.80;;
68577;SDS011;61668;45.388;11.784;2022-07-05T12:56:23;5.50;;;1.90;;
68577;SDS011;61668;45.388;11.784;2022-07-05T12:59:09;6.40;;;1.90;;
68577;SDS011;61668;45.388;11.784;2022-07-05T13:01:43;7.10;;;2.80;;
68577;SDS011;61668;45.388;11.784;2022-07-05T13:04:15;10.50;;;2.80;;
68577;SDS011;61668;45.388;11.784;2022-07-05T13:12:24;6.40;;;2.10;;
68577;SDS011;61668;45.388;11.784;2022-07-05T13:14:52;6.30;;;2.80;;
68577;SDS011;61668;45.388;11.784;2022-07-05T13:17:20;7.10;;;2.30;;
68577;SDS011;61668;45.388;11.784;2022-07-05T13:19:48;7.00;;;2.70;;
68577;SDS011;61668;45.388;11.784;2022-07-05T13:22:15;9.10;;;3.80;;
68577;SDS011;61668;45.388;11.784;2022-07-05T13:24:42;9.20;;;2.80;;
68577;SDS011;61668;45.388;11.784;2022-07-05T13:27:10;8.40;;;2.60;;
68577;SDS011;61668;45.388;11.784;2022-07-05T13:29:37;6.70;;;2.00;;
68577;SDS011;61668;45.388;11.784;2022-07-05T13:32:03;6.20;;;2.50;;
68577;SDS011;61668;45.388;11.784;2022-07-05T13:34:29;7.80;;;1.90;;
68577;SDS011;61668;45.388;11.784;2022-07-05T13:36:56;7.30;;;1.90;;
68577;SDS011;61668;45.388;11.784;2022-07-05T13:39:23;7.60;;;2.80;;
68577;SDS011;61668;45.388;11.784;2022-07-05T13:41:51;8.90;;;2.80;;
68577;SDS011;61668;45.388;11.784;2022-07-05T13:44:18;6.90;;;2.30;;
68577;SDS011;61668;45.388;11.784;2022-07-05T13:46:44;7.20;;;2.20;;
68577;SDS011;61668;45.388;11.784;2022-07-05T13:49:10;8.00;;;2.90;;
68577;SDS011;61668;45.388;11.784;2022-07-05T13:51:36;7.80;;;2.20;;
68577;SDS011;61668;45.388;11.784;2022-07-05T13:54:02;6.60;;;2.00;;
68577;SDS011;61668;45.388;11.784;2022-07-05T13:56:28;7.50;;;2.70;;
68577;SDS011;61668;45.388;11.784;2022-07-05T13:58:55;7.50;;;2.20;;
68577;SDS011;61668;45.388;11.784;2022-07-05T14:01:21;6.20;;;2.10;;
68577;SDS011;61668;45.388;11.784;2022-07-05T14:03:56;6.30;;;2.20;;
68577;SDS011;61668;45.388;11.784;2022-07-05T14:06:27;6.30;;;2.40;;
68577;SDS011;61668;45.388;11.784;2022-07-05T14:08:56;7.30;;;2.30;;
68577;SDS011;61668;45.388;11.784;2022-07-05T14:11:22;7.60;;;2.40;;
68577;SDS011;61668;45.388;11.784;2022-07-05T14:13:51;7.70;;;2.10;;
68577;SDS011;61668;45.388;11.784;2022-07-05T14:16:20;7.70;;;2.60;;
68577;SDS011;61668;45.388;11.784;2022-07-05T14:18:46;9.40;;;2.80;;
68577;SDS011;61668;45.388;11.784;2022-07-05T14:21:12;6.70;;;1.60;;
68577;SDS011;61668;45.388;11.784;2022-07-05T14:23:44;6.70;;;1.70;;
68577;SDS011;61668;45.388;11.784;2022-07-05T14:26:14;6.90;;;2.10;;
68577;SDS011;61668;45.388;11.784;2022-07-05T14:28:40;7.30;;;2.30;;
68577;SDS011;61668;45.388;11.784;2022-07-05T14:31:05;7.00;;;1.90;;
68577;SDS011;61668;45.388;11.784;2022-07-05T14:33:31;8.00;;;2.20;;
68577;SDS011;61668;45.388;11.784;2022-07-05T14:35:57;6.40;;;1.90;;
68577;SDS011;61668;45.388;11.784;2022-07-05T14:38:22;6.70;;;2.00;;
68577;SDS011;61668;45.388;11.784;2022-07-05T14:40:48;6.10;;;2.10;;
68577;SDS011;61668;45.388;11.784;2022-07-05T14:43:13;6.80;;;2.10;;
68577;SDS011;61668;45.388;11.784;2022-07-05T14:45:39;5.90;;;2.10;;
68577;SDS011;61668;45.388;11.784;2022-07-05T14:48:04;6.70;;;2.00;;
68577;SDS011;61668;45.388;11.784;2022-07-05T14:50:30;8.50;;;2.50;;
68577;SDS011;61668;45.388;11.784;2022-07-05T14:52:56;7.20;;;2.10;;
68577;SDS011;61668;45.388;11.784;2022-07-05T14:55:21;6.70;;;1.90;;
68577;SDS011;61668;45.388;11.784;2022-07-05T14:57:47;8.30;;;2.40;;
68577;SDS011;61668;45.388;11.784;2022-07-05T15:00:14;6.90;;;2.40;;
68577;SDS011;61668;45.388;11.784;2022-07-05T15:02:42;7.90;;;2.30;;
68577;SDS011;61668;45.388;11.784;2022-07-05T15:05:08;8.20;;;2.50;;
68577;SDS011;61668;45.388;11.784;2022-07-05T15:07:35;6.20;;;1.70;;
68577;SDS011;61668;45.388;11.784;2022-07-05T15:10:01;6.30;;;2.00;;
68577;SDS011;61668;45.388;11.784;2022-07-05T15:12:27;9.30;;;1.80;;
68577;SDS011;61668;45.388;11.784;2022-07-05T15:14:53;8.60;;;2.30;;
68577;SDS011;61668;45.388;11.784;2022-07-05T15:17:18;7.50;;;2.30;;
68577;SDS011;61668;45.388;11.784;2022-07-05T15:19:44;7.60;;;2.00;;
68577;SDS011;61668;45.388;11.784;2022-07-05T15:22:10;7.80;;;2.40;;
68577;SDS011;61668;45.388;11.784;2022-07-05T15:24:36;7.80;;;2.00;;
68577;SDS011;61668;45.388;11.784;2022-07-05T15:27:02;8.50;;;2.40;;
68577;SDS011;61668;45.388;11.784;2022-07-05T15:29:28;6.90;;;2.20;;
68577;SDS011;61668;45.388;11.784;2022-07-05T15:31:55;7.10;;;2.10;;
68577;SDS011;61668;45.388;11.784;2022-07-05T15:34:23;7.40;;;1.80;;
68577;SDS011;61668;45.388;11.784;2022-07-05T15:36:51;6.00;;;2.00;;